sensor_id;sensor_type;location;lat;lon;timestamp;temperature;humidity
7512;DHT22;9999;48.780;9.146;2022-12-20T00:01:44;4.10;99.90
7512;DHT22;9999;48.780;9.146;2022-12-20T00:04:11;4.10;99.90
7512;DHT22;9999;48.780;9.146;2022-12-20T00:06:38;4.00;99.90
7512;DHT22;9999;48.780;9.146;2022-12-20T00:09:07;4.00;99.90
7512;DHT22;9999;48.780;9.146;2022-12-20T00:11:38;4.10;99.90
7512;DHT22;9999;48.780;9.146;2022-12-20T00:14:05;4.20;99.90
7512;DHT22;9999;48.780;9.146;2022-12-20T00:16:33;4.10;99.90
7512;DHT22;9999;48.780;9.146;2022-12-20T00:19:02;4.10;99.90
7512;DHT22;9999;48.780;9.146;2022-12-20T00:21:30;4.20;99.90
7512;DHT22;9999;48.780;9.146;2022-12-20T00:23:58;4.20;99.90
7512;DHT22;9999;48.780;9.146;2022-12-20T00:26:26;4.30;99.90
7512;DHT22;9999;48.780;9.146;2022-12-20T00:28:55;4.20;99.90
7512;DHT22;9999;48.780;9.146;2022-12-20T00:31:23;4.20;99.90
7512;DHT22;9999;48.780;9.146;2022-12-20T00:33:51;4.10;99.90
7512;DHT22;9999;48.780;9.146;2022-12-20T00:36:20;4.00;99.90
7512;DHT22;9999;48.780;9.146;2022-12-20T00:38:48;3.90;99.90
7512;DHT22;9999;48.780;9.146;2022-12-20T00:41:17;3.90;99.90
7512;DHT22;9999;48.780;9.146;2022-12-20T00:43:45;3.80;99.90
7512;DHT22;9999;48.780;9.146;2022-12-20T00:46:14;3.70;99.90
7512;DHT22;9999;48.780;9.146;2022-12-20T00:48:41;3.80;99.90
7512;DHT22;9999;48.780;9.146;2022-12-20T00:51:10;3.90;99.90
7512;DHT22;9999;48.780;9.146;2022-12-20T00:53:37;4.10;99.90
7512;DHT22;9999;48.780;9.146;2022-12-20T00:56:05;4.20;99.90
7512;DHT22;9999;48.780;9.146;2022-12-20T00:58:33;4.30;99.90
7512;DHT22;9999;48.780;9.146;2022-12-20T01:01:00;4.30;99.90
7512;DHT22;9999;48.780;9.146;2022-12-20T01:03:29;4.40;99.90
7512;DHT22;9999;48.780;9.146;2022-12-20T01:05:57;4.40;99.90
7512;DHT22;9999;48.780;9.146;2022-12-20T01:08:25;4.40;99.90
7512;DHT22;9999;48.780;9.146;2022-12-20T01:10:59;4.40;99.90
7512;DHT22;9999;48.780;9.146;2022-12-20T01:13:27;4.40;99.90
7512;DHT22;9999;48.780;9.146;2022-12-20T01:15:54;4.30;99.90
7512;DHT22;9999;48.780;9.146;2022-12-20T01:18:21;4.40;99.90
7512;DHT22;9999;48.780;9.146;2022-12-20T01:20:59;4.40;99.90
7512;DHT22;9999;48.780;9.146;2022-12-20T01:23:26;4.30;99.90
7512;DHT22;9999;48.780;9.146;2022-12-20T01:25:54;4.40;99.90
7512;DHT22;9999;48.780;9.146;2022-12-20T01:28:22;4.40;99.90
7512;DHT22;9999;48.780;9.146;2022-12-20T01:30:49;4.30;99.90
7512;DHT22;9999;48.780;9.146;2022-12-20T01:33:16;4.30;99.90
7512;DHT22;9999;48.780;9.146;2022-12-20T01:35:54;4.40;99.90
7512;DHT22;9999;48.780;9.146;2022-12-20T01:38:21;4.40;99.90
7512;DHT22;9999;48.780;9.146;2022-12-20T01:40:48;4.30;99.90
7512;DHT22;9999;48.780;9.146;2022-12-20T01:43:17;4.30;99.90
7512;DHT22;9999;48.780;9.146;2022-12-20T01:45:44;4.20;99.90
7512;DHT22;9999;48.780;9.146;2022-12-20T01:48:13;4.20;99.90
7512;DHT22;9999;48.780;9.146;2022-12-20T01:50:40;4.30;99.90
7512;DHT22;9999;48.780;9.146;2022-12-20T01:53:10;4.30;99.90
7512;DHT22;9999;48.780;9.146;2022-12-20T01:55:37;4.30;99.90
7512;DHT22;9999;48.780;9.146;2022-12-20T01:58:05;4.20;99.90
7512;DHT22;9999;48.780;9.146;2022-12-20T02:00:34;4.10;99.90
7512;DHT22;9999;48.780;9.146;2022-12-20T02:03:04;4.10;99.90
7512;DHT22;9999;48.780;9.146;2022-12-20T02:05:34;4.10;99.90
7512;DHT22;9999;48.780;9.146;2022-12-20T02:08:02;4.00;99.90
7512;DHT22;9999;48.780;9.146;2022-12-20T02:10:39;4.00;99.90
7512;DHT22;9999;48.780;9.146;2022-12-20T02:13:22;4.00;99.90
7512;DHT22;9999;48.780;9.146;2022-12-20T02:15:54;4.00;99.90
7512;DHT22;9999;48.780;9.146;2022-12-20T02:18:24;4.00;99.90
7512;DHT22;9999;48.780;9.146;2022-12-20T02:21:11;4.00;99.90
7512;DHT22;9999;48.780;9.146;2022-12-20T02:29:59;3.90;99.90
7512;DHT22;9999;48.780;9.146;2022-12-20T02:32:29;3.90;99.90
7512;DHT22;9999;48.780;9.146;2022-12-20T02:34:59;3.80;99.90
7512;DHT22;9999;48.780;9.146;2022-12-20T02:37:26;3.70;99.90
7512;DHT22;9999;48.780;9.146;2022-12-20T02:39:53;3.80;99.90
7512;DHT22;9999;48.780;9.146;2022-12-20T02:42:22;3.80;99.90
7512;DHT22;9999;48.780;9.146;2022-12-20T02:44:58;3.90;99.90
7512;DHT22;9999;48.780;9.146;2022-12-20T02:47:52;3.90;99.90
7512;DHT22;9999;48.780;9.146;2022-12-20T02:50:25;4.00;99.90
7512;DHT22;9999;48.780;9.146;2022-12-20T02:52:54;4.10;99.90
7512;DHT22;9999;48.780;9.146;2022-12-20T02:55:26;4.00;99.90
7512;DHT22;9999;48.780;9.146;2022-12-20T02:57:58;3.90;99.90
7512;DHT22;9999;48.780;9.146;2022-12-20T03:00:28;3.90;99.90
7512;DHT22;9999;48.780;9.146;2022-12-20T03:02:58;3.90;99.90
7512;DHT22;9999;48.780;9.146;2022-12-20T03:05:45;3.90;99.90
7512;DHT22;9999;48.780;9.146;2022-12-20T03:08:16;4.00;99.90
7512;DHT22;9999;48.780;9.146;2022-12-20T03:10:43;4.00;99.90
7512;DHT22;9999;48.780;9.146;2022-12-20T03:13:10;4.00;99.90
7512;DHT22;9999;48.780;9.146;2022-12-20T03:15:46;4.00;99.90
7512;DHT22;9999;48.780;9.146;2022-12-20T03:18:13;3.90;99.90
7512;DHT22;9999;48.780;9.146;2022-12-20T03:20:40;3.90;99.90
7512;DHT22;9999;48.780;9.146;2022-12-20T03:23:07;3.90;99.90
7512;DHT22;9999;48.780;9.146;2022-12-20T03:25:35;3.90;99.90
7512;DHT22;9999;48.780;9.146;2022-12-20T03:28:03;4.00;99.90
7512;DHT22;9999;48.780;9.146;2022-12-20T03:30:30;4.10;99.90
7512;DHT22;9999;48.780;9.146;2022-12-20T03:32:58;4.10;99.90
7512;DHT22;9999;48.780;9.146;2022-12-20T03:35:25;4.20;99.90
7512;DHT22;9999;48.780;9.146;2022-12-20T03:37:52;4.30;99.90
7512;DHT22;9999;48.780;9.146;2022-12-20T03:40:20;4.30;99.90
7512;DHT22;9999;48.780;9.146;2022-12-20T03:42:47;4.40;99.90
7512;DHT22;9999;48.780;9.146;2022-12-20T03:45:14;4.40;99.90
7512;DHT22;9999;48.780;9.146;2022-12-20T03:47:41;4.50;99.90
7512;DHT22;9999;48.780;9.146;2022-12-20T03:50:10;4.50;99.90
7512;DHT22;9999;48.780;9.146;2022-12-20T03:52:38;4.50;99.90
7512;DHT22;9999;48.780;9.146;2022-12-20T03:55:06;4.50;99.90
7512;DHT22;9999;48.780;9.146;2022-12-20T03:57:39;4.50;99.90
7512;DHT22;9999;48.780;9.146;2022-12-20T04:00:20;4.60;99.90
7512;DHT22;9999;48.780;9.146;2022-12-20T04:02:50;4.60;99.90
7512;DHT22;9999;48.780;9.146;2022-12-20T04:05:19;4.60;99.90
7512;DHT22;9999;48.780;9.146;2022-12-20T04:07:45;4.60;99.90
7512;DHT22;9999;48.780;9.146;2022-12-20T04:10:12;4.60;99.90
7512;DHT22;9999;48.780;9.146;2022-12-20T04:12:40;4.60;99.90
7512;DHT22;9999;48.780;9.146;2022-12-20T04:15:10;4.60;99.90
7512;DHT22;9999;48.780;9.146;2022-12-20T04:17:39;4.60;99.90
7512;DHT22;9999;48.780;9.146;2022-12-20T04:20:09;4.70;99.90
7512;DHT22;9999;48.780;9.146;2022-12-20T04:22:50;4.60;99.90
7512;DHT22;9999;48.780;9.146;2022-12-20T04:25:19;4.60;99.90
7512;DHT22;9999;48.780;9.146;2022-12-20T04:27:46;4.70;99.90
7512;DHT22;9999;48.780;9.146;2022-12-20T04:30:13;4.70;99.90
7512;DHT22;9999;48.780;9.146;2022-12-20T04:32:40;4.70;99.90
7512;DHT22;9999;48.780;9.146;2022-12-20T04:35:08;4.70;99.90
7512;DHT22;9999;48.780;9.146;2022-12-20T04:37:39;4.70;99.90
7512;DHT22;9999;48.780;9.146;2022-12-20T04:40:09;4.90;99.90
7512;DHT22;9999;48.780;9.146;2022-12-20T04:42:44;4.90;99.90
7512;DHT22;9999;48.780;9.146;2022-12-20T04:45:13;4.90;99.90
7512;DHT22;9999;48.780;9.146;2022-12-20T04:47:40;4.90;99.90
7512;DHT22;9999;48.780;9.146;2022-12-20T04:50:09;4.90;99.90
7512;DHT22;9999;48.780;9.146;2022-12-20T04:52:36;4.90;99.90
7512;DHT22;9999;48.780;9.146;2022-12-20T04:55:21;4.90;99.90
7512;DHT22;9999;48.780;9.146;2022-12-20T04:57:48;4.90;99.90
7512;DHT22;9999;48.780;9.146;2022-12-20T05:00:16;5.00;99.90
7512;DHT22;9999;48.780;9.146;2022-12-20T05:02:46;5.00;99.90
7512;DHT22;9999;48.780;9.146;2022-12-20T05:05:16;5.00;99.90
7512;DHT22;9999;48.780;9.146;2022-12-20T05:07:48;5.00;99.90
7512;DHT22;9999;48.780;9.146;2022-12-20T05:10:16;5.00;99.90
7512;DHT22;9999;48.780;9.146;2022-12-20T05:12:45;5.00;99.90
7512;DHT22;9999;48.780;9.146;2022-12-20T05:15:20;5.00;99.90
7512;DHT22;9999;48.780;9.146;2022-12-20T05:17:47;5.00;99.90
7512;DHT22;9999;48.780;9.146;2022-12-20T05:20:14;5.00;99.90
7512;DHT22;9999;48.780;9.146;2022-12-20T05:22:43;5.00;99.90
7512;DHT22;9999;48.780;9.146;2022-12-20T05:25:27;5.10;99.90
7512;DHT22;9999;48.780;9.146;2022-12-20T05:28:15;5.10;99.90
7512;DHT22;9999;48.780;9.146;2022-12-20T05:30:41;5.10;99.90
7512;DHT22;9999;48.780;9.146;2022-12-20T05:33:09;5.10;99.90
7512;DHT22;9999;48.780;9.146;2022-12-20T05:35:37;5.10;99.90
7512;DHT22;9999;48.780;9.146;2022-12-20T05:38:09;5.10;99.90
7512;DHT22;9999;48.780;9.146;2022-12-20T05:40:37;5.20;99.90
7512;DHT22;9999;48.780;9.146;2022-12-20T05:43:04;5.20;99.90
7512;DHT22;9999;48.780;9.146;2022-12-20T05:45:37;5.20;99.90
7512;DHT22;9999;48.780;9.146;2022-12-20T05:48:11;5.20;99.90
7512;DHT22;9999;48.780;9.146;2022-12-20T05:50:40;5.20;99.90
7512;DHT22;9999;48.780;9.146;2022-12-20T05:53:28;5.30;99.90
7512;DHT22;9999;48.780;9.146;2022-12-20T05:55:58;5.20;99.90
7512;DHT22;9999;48.780;9.146;2022-12-20T05:58:30;5.30;99.90
7512;DHT22;9999;48.780;9.146;2022-12-20T06:01:05;5.30;99.90
7512;DHT22;9999;48.780;9.146;2022-12-20T06:03:37;5.40;99.90
7512;DHT22;9999;48.780;9.146;2022-12-20T06:06:08;5.40;99.90
7512;DHT22;9999;48.780;9.146;2022-12-20T06:08:35;5.30;99.90
7512;DHT22;9999;48.780;9.146;2022-12-20T06:11:07;5.30;99.90
7512;DHT22;9999;48.780;9.146;2022-12-20T06:13:44;5.20;99.90
7512;DHT22;9999;48.780;9.146;2022-12-20T06:16:13;5.20;99.90
7512;DHT22;9999;48.780;9.146;2022-12-20T06:18:40;5.20;99.90
7512;DHT22;9999;48.780;9.146;2022-12-20T06:21:07;5.30;99.90
7512;DHT22;9999;48.780;9.146;2022-12-20T06:23:35;5.40;99.90
7512;DHT22;9999;48.780;9.146;2022-12-20T06:26:07;5.40;99.90
7512;DHT22;9999;48.780;9.146;2022-12-20T06:28:39;5.30;99.90
7512;DHT22;9999;48.780;9.146;2022-12-20T06:31:09;5.30;99.90
7512;DHT22;9999;48.780;9.146;2022-12-20T06:33:43;5.20;99.90
7512;DHT22;9999;48.780;9.146;2022-12-20T06:36:12;5.20;99.90
7512;DHT22;9999;48.780;9.146;2022-12-20T06:38:40;5.30;99.90
7512;DHT22;9999;48.780;9.146;2022-12-20T06:41:06;5.40;99.90
7512;DHT22;9999;48.780;9.146;2022-12-20T06:43:33;5.40;99.90
7512;DHT22;9999;48.780;9.146;2022-12-20T06:46:01;5.40;99.90
7512;DHT22;9999;48.780;9.146;2022-12-20T06:48:28;5.30;99.90
7512;DHT22;9999;48.780;9.146;2022-12-20T06:50:56;5.30;99.90
7512;DHT22;9999;48.780;9.146;2022-12-20T06:53:25;5.30;99.90
7512;DHT22;9999;48.780;9.146;2022-12-20T06:55:52;5.30;99.90
7512;DHT22;9999;48.780;9.146;2022-12-20T06:58:20;5.30;99.90
7512;DHT22;9999;48.780;9.146;2022-12-20T07:00:47;5.40;99.90
7512;DHT22;9999;48.780;9.146;2022-12-20T07:03:14;5.30;99.90
7512;DHT22;9999;48.780;9.146;2022-12-20T07:05:41;5.40;99.90
7512;DHT22;9999;48.780;9.146;2022-12-20T07:08:09;5.20;99.90
7512;DHT22;9999;48.780;9.146;2022-12-20T07:10:36;5.20;99.90
7512;DHT22;9999;48.780;9.146;2022-12-20T07:13:03;5.20;99.90
7512;DHT22;9999;48.780;9.146;2022-12-20T07:15:30;5.10;99.90
7512;DHT22;9999;48.780;9.146;2022-12-20T07:17:57;5.10;99.90
7512;DHT22;9999;48.780;9.146;2022-12-20T07:20:24;5.10;99.90
7512;DHT22;9999;48.780;9.146;2022-12-20T07:22:50;5.00;99.90
7512;DHT22;9999;48.780;9.146;2022-12-20T07:25:19;5.00;99.90
7512;DHT22;9999;48.780;9.146;2022-12-20T07:27:46;5.00;99.90
7512;DHT22;9999;48.780;9.146;2022-12-20T07:30:14;5.00;99.90
7512;DHT22;9999;48.780;9.146;2022-12-20T07:32:41;5.00;99.90
7512;DHT22;9999;48.780;9.146;2022-12-20T07:35:09;5.00;99.90
7512;DHT22;9999;48.780;9.146;2022-12-20T07:37:36;5.10;99.90
7512;DHT22;9999;48.780;9.146;2022-12-20T07:40:04;5.00;99.90
7512;DHT22;9999;48.780;9.146;2022-12-20T07:42:33;5.00;99.90
7512;DHT22;9999;48.780;9.146;2022-12-20T07:45:00;5.00;99.90
7512;DHT22;9999;48.780;9.146;2022-12-20T07:47:28;5.00;99.90
7512;DHT22;9999;48.780;9.146;2022-12-20T07:49:55;5.00;99.90
7512;DHT22;9999;48.780;9.146;2022-12-20T07:52:23;5.10;99.90
7512;DHT22;9999;48.780;9.146;2022-12-20T07:54:53;5.10;99.90
7512;DHT22;9999;48.780;9.146;2022-12-20T07:57:24;5.20;99.90
7512;DHT22;9999;48.780;9.146;2022-12-20T07:59:54;5.10;99.90
7512;DHT22;9999;48.780;9.146;2022-12-20T08:02:25;5.20;99.90
7512;DHT22;9999;48.780;9.146;2022-12-20T08:04:54;5.20;99.90
7512;DHT22;9999;48.780;9.146;2022-12-20T08:07:21;5.20;99.90
7512;DHT22;9999;48.780;9.146;2022-12-20T08:09:48;5.20;99.90
7512;DHT22;9999;48.780;9.146;2022-12-20T08:12:16;5.30;99.90
7512;DHT22;9999;48.780;9.146;2022-12-20T08:14:44;5.30;99.90
7512;DHT22;9999;48.780;9.146;2022-12-20T08:17:13;5.30;99.90
7512;DHT22;9999;48.780;9.146;2022-12-20T08:19:39;5.40;99.90
7512;DHT22;9999;48.780;9.146;2022-12-20T08:22:06;5.40;99.90
7512;DHT22;9999;48.780;9.146;2022-12-20T08:24:33;5.50;99.90
7512;DHT22;9999;48.780;9.146;2022-12-20T08:27:00;5.50;99.90
7512;DHT22;9999;48.780;9.146;2022-12-20T08:29:27;5.60;99.90
7512;DHT22;9999;48.780;9.146;2022-12-20T08:31:53;5.60;99.90
7512;DHT22;9999;48.780;9.146;2022-12-20T08:34:21;5.60;99.90
7512;DHT22;9999;48.780;9.146;2022-12-20T08:36:48;5.80;99.90
7512;DHT22;9999;48.780;9.146;2022-12-20T08:39:15;5.90;99.90
7512;DHT22;9999;48.780;9.146;2022-12-20T08:41:42;5.90;99.90
7512;DHT22;9999;48.780;9.146;2022-12-20T08:44:09;5.90;99.90
7512;DHT22;9999;48.780;9.146;2022-12-20T08:46:35;6.00;99.90
7512;DHT22;9999;48.780;9.146;2022-12-20T08:49:03;6.10;99.90
7512;DHT22;9999;48.780;9.146;2022-12-20T08:51:31;6.10;99.90
7512;DHT22;9999;48.780;9.146;2022-12-20T08:53:58;6.20;99.90
7512;DHT22;9999;48.780;9.146;2022-12-20T08:56:25;6.40;99.90
7512;DHT22;9999;48.780;9.146;2022-12-20T08:58:51;6.50;99.90
7512;DHT22;9999;48.780;9.146;2022-12-20T09:01:19;6.60;99.90
7512;DHT22;9999;48.780;9.146;2022-12-20T09:03:47;6.80;99.90
7512;DHT22;9999;48.780;9.146;2022-12-20T09:06:16;6.90;99.90
7512;DHT22;9999;48.780;9.146;2022-12-20T09:08:45;6.90;99.90
7512;DHT22;9999;48.780;9.146;2022-12-20T09:11:13;7.00;99.90
7512;DHT22;9999;48.780;9.146;2022-12-20T09:13:42;7.00;99.90
7512;DHT22;9999;48.780;9.146;2022-12-20T09:16:11;7.00;99.90
7512;DHT22;9999;48.780;9.146;2022-12-20T09:18:38;7.10;99.90
7512;DHT22;9999;48.780;9.146;2022-12-20T09:21:06;7.10;99.90
7512;DHT22;9999;48.780;9.146;2022-12-20T09:23:34;7.00;99.90
7512;DHT22;9999;48.780;9.146;2022-12-20T09:26:04;7.30;99.90
7512;DHT22;9999;48.780;9.146;2022-12-20T09:28:32;7.30;99.90
7512;DHT22;9999;48.780;9.146;2022-12-20T09:30:59;7.30;99.90
7512;DHT22;9999;48.780;9.146;2022-12-20T09:33:27;7.50;99.90
7512;DHT22;9999;48.780;9.146;2022-12-20T09:35:55;7.50;99.90
7512;DHT22;9999;48.780;9.146;2022-12-20T09:38:22;7.50;99.90
7512;DHT22;9999;48.780;9.146;2022-12-20T09:40:50;7.40;99.90
7512;DHT22;9999;48.780;9.146;2022-12-20T09:43:20;7.50;99.90
7512;DHT22;9999;48.780;9.146;2022-12-20T09:45:51;7.70;99.90
7512;DHT22;9999;48.780;9.146;2022-12-20T09:48:20;7.60;99.90
7512;DHT22;9999;48.780;9.146;2022-12-20T09:50:56;7.60;99.90
7512;DHT22;9999;48.780;9.146;2022-12-20T09:53:34;7.70;99.90
7512;DHT22;9999;48.780;9.146;2022-12-20T09:56:06;7.60;99.90
7512;DHT22;9999;48.780;9.146;2022-12-20T09:58:49;7.70;99.90
7512;DHT22;9999;48.780;9.146;2022-12-20T10:01:21;7.60;99.90
7512;DHT22;9999;48.780;9.146;2022-12-20T10:03:48;7.70;99.90
7512;DHT22;9999;48.780;9.146;2022-12-20T10:06:22;7.60;99.90
7512;DHT22;9999;48.780;9.146;2022-12-20T10:08:55;7.70;99.90
7512;DHT22;9999;48.780;9.146;2022-12-20T10:11:39;7.70;99.90
7512;DHT22;9999;48.780;9.146;2022-12-20T10:14:16;7.80;99.90
7512;DHT22;9999;48.780;9.146;2022-12-20T10:16:50;7.90;99.90
7512;DHT22;9999;48.780;9.146;2022-12-20T10:19:37;7.90;99.90
7512;DHT22;9999;48.780;9.146;2022-12-20T10:22:13;7.90;99.90
7512;DHT22;9999;48.780;9.146;2022-12-20T10:24:47;8.00;99.90
7512;DHT22;9999;48.780;9.146;2022-12-20T10:27:18;8.00;99.90
7512;DHT22;9999;48.780;9.146;2022-12-20T10:29:48;8.00;99.90
7512;DHT22;9999;48.780;9.146;2022-12-20T10:32:16;8.10;99.90
7512;DHT22;9999;48.780;9.146;2022-12-20T10:34:51;8.10;99.90
7512;DHT22;9999;48.780;9.146;2022-12-20T10:37:21;8.30;99.90
7512;DHT22;9999;48.780;9.146;2022-12-20T10:39:49;8.30;99.90
7512;DHT22;9999;48.780;9.146;2022-12-20T10:42:27;8.40;99.90
7512;DHT22;9999;48.780;9.146;2022-12-20T10:44:57;8.30;99.90
7512;DHT22;9999;48.780;9.146;2022-12-20T10:47:35;8.40;99.90
7512;DHT22;9999;48.780;9.146;2022-12-20T10:50:14;8.40;99.90
7512;DHT22;9999;48.780;9.146;2022-12-20T10:52:42;8.30;99.90
7512;DHT22;9999;48.780;9.146;2022-12-20T10:55:33;8.30;99.90
7512;DHT22;9999;48.780;9.146;2022-12-20T10:58:03;8.30;99.90
7512;DHT22;9999;48.780;9.146;2022-12-20T11:00:32;8.30;99.90
7512;DHT22;9999;48.780;9.146;2022-12-20T11:03:08;8.30;99.90
7512;DHT22;9999;48.780;9.146;2022-12-20T11:05:36;8.40;99.90
7512;DHT22;9999;48.780;9.146;2022-12-20T11:08:12;8.40;99.90
7512;DHT22;9999;48.780;9.146;2022-12-20T11:10:40;8.50;99.90
7512;DHT22;9999;48.780;9.146;2022-12-20T11:13:19;8.50;99.90
7512;DHT22;9999;48.780;9.146;2022-12-20T11:15:50;8.40;99.90
7512;DHT22;9999;48.780;9.146;2022-12-20T11:18:25;8.50;99.90
7512;DHT22;9999;48.780;9.146;2022-12-20T11:20:59;8.50;99.90
7512;DHT22;9999;48.780;9.146;2022-12-20T11:23:34;8.60;99.90
7512;DHT22;9999;48.780;9.146;2022-12-20T11:26:15;8.60;99.90
7512;DHT22;9999;48.780;9.146;2022-12-20T11:28:54;8.60;99.90
7512;DHT22;9999;48.780;9.146;2022-12-20T11:31:34;8.60;99.90
7512;DHT22;9999;48.780;9.146;2022-12-20T11:34:16;8.60;99.90
7512;DHT22;9999;48.780;9.146;2022-12-20T11:36:57;8.60;99.90
7512;DHT22;9999;48.780;9.146;2022-12-20T11:39:33;8.60;99.90
7512;DHT22;9999;48.780;9.146;2022-12-20T11:42:07;8.50;99.90
7512;DHT22;9999;48.780;9.146;2022-12-20T11:44:48;8.40;99.90
7512;DHT22;9999;48.780;9.146;2022-12-20T11:50:27;8.50;99.90
7512;DHT22;9999;48.780;9.146;2022-12-20T11:52:59;8.30;99.90
7512;DHT22;9999;48.780;9.146;2022-12-20T11:55:30;8.40;99.90
7512;DHT22;9999;48.780;9.146;2022-12-20T11:58:02;8.40;99.90
7512;DHT22;9999;48.780;9.146;2022-12-20T12:00:32;8.40;99.90
7512;DHT22;9999;48.780;9.146;2022-12-20T12:03:07;8.30;99.90
7512;DHT22;9999;48.780;9.146;2022-12-20T12:05:41;8.30;99.90
7512;DHT22;9999;48.780;9.146;2022-12-20T12:08:13;8.20;99.90
7512;DHT22;9999;48.780;9.146;2022-12-20T12:10:47;8.20;99.90
7512;DHT22;9999;48.780;9.146;2022-12-20T12:13:22;8.10;99.90
7512;DHT22;9999;48.780;9.146;2022-12-20T12:15:56;8.20;99.90
7512;DHT22;9999;48.780;9.146;2022-12-20T12:18:28;8.20;99.90
7512;DHT22;9999;48.780;9.146;2022-12-20T12:21:01;8.20;99.90
7512;DHT22;9999;48.780;9.146;2022-12-20T12:23:34;8.30;99.90
7512;DHT22;9999;48.780;9.146;2022-12-20T12:26:04;8.30;99.90
7512;DHT22;9999;48.780;9.146;2022-12-20T12:28:35;8.40;99.90
7512;DHT22;9999;48.780;9.146;2022-12-20T12:31:05;8.20;99.90
7512;DHT22;9999;48.780;9.146;2022-12-20T12:33:37;8.10;99.90
7512;DHT22;9999;48.780;9.146;2022-12-20T12:36:18;8.00;99.90
7512;DHT22;9999;48.780;9.146;2022-12-20T12:39:10;8.00;99.90
7512;DHT22;9999;48.780;9.146;2022-12-20T12:44:51;8.10;99.90
7512;DHT22;9999;48.780;9.146;2022-12-20T12:47:20;8.20;99.90
7512;DHT22;9999;48.780;9.146;2022-12-20T12:49:52;8.30;99.90
7512;DHT22;9999;48.780;9.146;2022-12-20T12:52:39;8.30;99.90
7512;DHT22;9999;48.780;9.146;2022-12-20T12:55:34;8.30;99.90
7512;DHT22;9999;48.780;9.146;2022-12-20T13:01:05;8.40;99.90
7512;DHT22;9999;48.780;9.146;2022-12-20T13:03:42;8.40;99.90
7512;DHT22;9999;48.780;9.146;2022-12-20T13:06:49;8.50;99.90
7512;DHT22;9999;48.780;9.146;2022-12-20T13:09:21;8.50;99.90
7512;DHT22;9999;48.780;9.146;2022-12-20T13:15:49;8.40;99.90
7512;DHT22;9999;48.780;9.146;2022-12-20T13:18:24;8.30;99.90
7512;DHT22;9999;48.780;9.146;2022-12-20T13:21:30;8.30;99.90
7512;DHT22;9999;48.780;9.146;2022-12-20T13:27:34;8.40;99.90
7512;DHT22;9999;48.780;9.146;2022-12-20T13:30:23;8.50;99.90
7512;DHT22;9999;48.780;9.146;2022-12-20T13:35:59;8.60;99.90
7512;DHT22;9999;48.780;9.146;2022-12-20T13:38:48;8.60;99.90
7512;DHT22;9999;48.780;9.146;2022-12-20T13:41:40;8.60;99.90
7512;DHT22;9999;48.780;9.146;2022-12-20T13:44:30;8.60;99.90
7512;DHT22;9999;48.780;9.146;2022-12-20T13:47:02;8.60;99.90
7512;DHT22;9999;48.780;9.146;2022-12-20T13:49:35;8.60;99.90
7512;DHT22;9999;48.780;9.146;2022-12-20T13:52:20;8.60;99.90
7512;DHT22;9999;48.780;9.146;2022-12-20T13:54:51;8.70;99.90
7512;DHT22;9999;48.780;9.146;2022-12-20T13:57:28;8.80;99.90
7512;DHT22;9999;48.780;9.146;2022-12-20T13:59:59;8.80;99.90
7512;DHT22;9999;48.780;9.146;2022-12-20T14:02:28;8.80;99.90
7512;DHT22;9999;48.780;9.146;2022-12-20T14:04:59;8.70;99.90
7512;DHT22;9999;48.780;9.146;2022-12-20T14:07:28;8.70;99.90
7512;DHT22;9999;48.780;9.146;2022-12-20T14:09:59;8.80;99.90
7512;DHT22;9999;48.780;9.146;2022-12-20T14:12:27;8.70;99.90
7512;DHT22;9999;48.780;9.146;2022-12-20T14:14:55;8.70;99.90
7512;DHT22;9999;48.780;9.146;2022-12-20T14:17:24;8.60;99.90
7512;DHT22;9999;48.780;9.146;2022-12-20T14:20:22;8.60;99.90
7512;DHT22;9999;48.780;9.146;2022-12-20T14:22:54;8.60;99.90
7512;DHT22;9999;48.780;9.146;2022-12-20T14:25:29;8.50;99.90
7512;DHT22;9999;48.780;9.146;2022-12-20T14:27:57;8.50;99.90
7512;DHT22;9999;48.780;9.146;2022-12-20T14:30:31;8.40;99.90
7512;DHT22;9999;48.780;9.146;2022-12-20T14:32:58;8.40;99.90
7512;DHT22;9999;48.780;9.146;2022-12-20T14:35:26;8.30;99.90
7512;DHT22;9999;48.780;9.146;2022-12-20T14:37:58;8.30;99.90
7512;DHT22;9999;48.780;9.146;2022-12-20T14:40:26;8.30;99.90
7512;DHT22;9999;48.780;9.146;2022-12-20T14:42:54;8.20;99.90
7512;DHT22;9999;48.780;9.146;2022-12-20T14:45:25;8.20;99.90
7512;DHT22;9999;48.780;9.146;2022-12-20T14:48:05;8.10;99.90
7512;DHT22;9999;48.780;9.146;2022-12-20T14:50:35;8.00;99.90
7512;DHT22;9999;48.780;9.146;2022-12-20T14:53:03;8.00;99.90
7512;DHT22;9999;48.780;9.146;2022-12-20T14:55:32;8.00;99.90
7512;DHT22;9999;48.780;9.146;2022-12-20T14:58:01;8.00;99.90
7512;DHT22;9999;48.780;9.146;2022-12-20T15:00:32;7.90;99.90
7512;DHT22;9999;48.780;9.146;2022-12-20T15:03:09;8.00;99.90
7512;DHT22;9999;48.780;9.146;2022-12-20T15:05:48;7.90;99.90
7512;DHT22;9999;48.780;9.146;2022-12-20T15:08:17;7.90;99.90
7512;DHT22;9999;48.780;9.146;2022-12-20T15:10:53;7.90;99.90
7512;DHT22;9999;48.780;9.146;2022-12-20T15:13:23;7.90;99.90
7512;DHT22;9999;48.780;9.146;2022-12-20T15:15:51;7.90;99.90
7512;DHT22;9999;48.780;9.146;2022-12-20T15:18:20;7.90;99.90
7512;DHT22;9999;48.780;9.146;2022-12-20T15:20:48;7.90;99.90
7512;DHT22;9999;48.780;9.146;2022-12-20T15:23:21;7.90;99.90
7512;DHT22;9999;48.780;9.146;2022-12-20T15:25:48;7.80;99.90
7512;DHT22;9999;48.780;9.146;2022-12-20T15:28:17;7.70;99.90
7512;DHT22;9999;48.780;9.146;2022-12-20T15:30:44;7.70;99.90
7512;DHT22;9999;48.780;9.146;2022-12-20T15:33:21;7.70;99.90
7512;DHT22;9999;48.780;9.146;2022-12-20T15:35:48;7.70;99.90
7512;DHT22;9999;48.780;9.146;2022-12-20T15:38:17;7.80;99.90
7512;DHT22;9999;48.780;9.146;2022-12-20T15:40:45;7.80;99.90
7512;DHT22;9999;48.780;9.146;2022-12-20T15:43:14;7.90;99.90
7512;DHT22;9999;48.780;9.146;2022-12-20T15:45:43;7.80;99.90
7512;DHT22;9999;48.780;9.146;2022-12-20T15:48:13;7.90;99.90
7512;DHT22;9999;48.780;9.146;2022-12-20T15:50:44;8.00;99.90
7512;DHT22;9999;48.780;9.146;2022-12-20T15:53:15;8.00;99.90
7512;DHT22;9999;48.780;9.146;2022-12-20T15:55:44;7.90;99.90
7512;DHT22;9999;48.780;9.146;2022-12-20T15:58:11;7.90;99.90
7512;DHT22;9999;48.780;9.146;2022-12-20T16:00:39;8.00;99.90
7512;DHT22;9999;48.780;9.146;2022-12-20T16:03:13;8.00;99.90
7512;DHT22;9999;48.780;9.146;2022-12-20T16:05:40;8.00;99.90
7512;DHT22;9999;48.780;9.146;2022-12-20T16:08:08;8.00;99.90
7512;DHT22;9999;48.780;9.146;2022-12-20T16:10:35;7.80;99.90
7512;DHT22;9999;48.780;9.146;2022-12-20T16:13:02;7.80;99.90
7512;DHT22;9999;48.780;9.146;2022-12-20T16:15:29;7.90;99.90
7512;DHT22;9999;48.780;9.146;2022-12-20T16:17:56;7.90;99.90
7512;DHT22;9999;48.780;9.146;2022-12-20T16:20:23;7.80;99.90
7512;DHT22;9999;48.780;9.146;2022-12-20T16:22:52;7.80;99.90
7512;DHT22;9999;48.780;9.146;2022-12-20T16:25:28;7.90;99.90
7512;DHT22;9999;48.780;9.146;2022-12-20T16:27:56;7.90;99.90
7512;DHT22;9999;48.780;9.146;2022-12-20T16:30:23;7.90;99.90
7512;DHT22;9999;48.780;9.146;2022-12-20T16:32:50;8.00;99.90
7512;DHT22;9999;48.780;9.146;2022-12-20T16:35:23;8.00;99.90
7512;DHT22;9999;48.780;9.146;2022-12-20T16:37:52;8.00;99.90
7512;DHT22;9999;48.780;9.146;2022-12-20T16:40:20;8.00;99.90
7512;DHT22;9999;48.780;9.146;2022-12-20T16:42:49;8.10;99.90
7512;DHT22;9999;48.780;9.146;2022-12-20T16:45:18;8.00;99.90
7512;DHT22;9999;48.780;9.146;2022-12-20T16:47:45;8.10;99.90
7512;DHT22;9999;48.780;9.146;2022-12-20T16:50:12;8.00;99.90
7512;DHT22;9999;48.780;9.146;2022-12-20T16:52:40;8.10;99.90
7512;DHT22;9999;48.780;9.146;2022-12-20T16:55:13;8.00;99.90
7512;DHT22;9999;48.780;9.146;2022-12-20T16:57:40;8.00;99.90
7512;DHT22;9999;48.780;9.146;2022-12-20T17:00:15;8.00;99.90
7512;DHT22;9999;48.780;9.146;2022-12-20T17:02:42;8.00;99.90
7512;DHT22;9999;48.780;9.146;2022-12-20T17:05:20;8.10;99.90
7512;DHT22;9999;48.780;9.146;2022-12-20T17:07:47;8.00;99.90